Flight Track Log - Related Links

Times and Time Zones

All times are in EDT time to prevent confusion due to time zone crossing. See the N53442 flight status page for this flight to view local times or setup timezone preferences in your user account.

Time Position Orientation Groundspeed Altitude Reporting Facility
EDT Latitude Longitude Course Direction KTS MPH feet Rate Location/Type
Fri 08:06:12 PM 37.6230 -122.3900 73° East 27 31  Level FlightAware ADS-B
Fri 08:06:37 PM 37.6220 -122.3880 122° Southeast 31 36 44 Level FlightAware ADS-B
Fri 08:07:12 PM 37.6210 -122.3860 122° Southeast 28 32 46 Level FlightAware ADS-B
Fri 08:07:40 PM 37.6200 -122.3840 122° Southeast 31 36 50 Level FlightAware ADS-B
Fri 08:08:03 PM 37.6200 -122.3820 90° East 29 33 53 Level FlightAware ADS-B
Fri 08:08:26 PM 37.6190 -122.3810 142° Southeast 28 32 56 Level FlightAware ADS-B
Fri 08:09:26 PM 37.6150 -122.3780 149° Southeast 28 32 59 Level FlightAware ADS-B
Fri 08:09:30 PM 37.6170 -122.3800 322° Northwest 27 31 69 Level FlightAware ADS-B
Fri 08:09:58 PM 37.6150 -122.3800 180° South 22 25 70 Level FlightAware ADS-B
Fri 08:12:00 PM 37.8282 -122.3500 North  Level FlightAware Approximate
Fri 08:12:21 PM 37.6090 -122.3840 North 27 31  Level FlightAware ADS-B
Fri 08:12:57 PM 37.6070 -122.3840 180° South 16 18 138 Level FlightAware ADS-B
Fri 08:13:18 PM 37.6060 -122.3830 142° Southeast 17 20 174 Level FlightAware ADS-B
Fri 08:13:52 PM 37.6070 -122.3810 58° Northeast 19 22 205 Level FlightAware ADS-B
Fri 08:14:40 PM 37.6090 -122.3790 38° Northeast 70 81 289 Level FlightAware ADS-B
Fri 08:14:54 PM 37.6150 -122.3750 28° Northeast 130 150 686 Level FlightAware ADS-B
Fri 08:15:15 PM 37.6302 -122.3650 28° Northeast 176 203 400 1,500 Climbing FlightAware ADS-B
Fri 08:15:22 PM 37.6354 -122.3610 31° Northeast 183 211 700 2,182 Climbing FlightAware ADS-B
Fri 08:15:26 PM 37.6382 -122.3590 29° Northeast 188 216 800 1,333 Climbing FlightAware ADS-B
Fri 08:15:31 PM 37.6412 -122.3560 38° Northeast 192 221 900 1,500 Climbing FlightAware ADS-B
Fri 08:15:38 PM 37.6459 -122.3500 45° Northeast 194 223 1,100 1,385 Climbing FlightAware ADS-B
Fri 08:15:44 PM 37.6496 -122.3450 47° Northeast 202 232 1,200 1,091 Climbing FlightAware ADS-B
Fri 08:16:00 PM 37.6601 -122.3300 49° Northeast 222 255 1,500 1,111 Climbing FlightAware ADS-B
Fri 08:16:11 PM 37.6682 -122.3190 47° Northeast 238 274 1,700 2,308 Climbing FlightAware ADS-B
Fri 08:16:26 PM 37.6799 -122.3040 45° Northeast 236 272 2,500 2,813 Climbing FlightAware ADS-B
Fri 08:16:43 PM 37.6925 -122.2880 45° Northeast 237 273 3,200 1,818 Climbing FlightAware ADS-B
Fri 08:16:59 PM 37.7055 -122.2710 46° Northeast 263 303 3,500 1,355 Climbing FlightAware ADS-B
Fri 08:17:14 PM 37.7188 -122.2530 47° Northeast 277 319 3,900 2,182 Climbing FlightAware ADS-B
Fri 08:17:32 PM 37.7352 -122.2320 45° Northeast 278 320 4,700 2,889 Climbing FlightAware ADS-B
Fri 08:17:41 PM 37.7444 -122.2240 35° Northeast 277 319 5,200 2,769 Climbing FlightAware ADS-B
Fri 08:17:58 PM 37.7652 -122.2140 21° North 276 318 5,900 2,129 Climbing FlightAware ADS-B
Fri 08:18:12 PM 37.7837 -122.2140 360° North 287 330 6,300 2,294 Climbing FlightAware ADS-B
Fri 08:18:32 PM 37.8106 -122.2150 358° North 289 333 7,200 2,571 Climbing FlightAware ADS-B
Fri 08:18:47 PM 37.8314 -122.2150 360° North 294 338 7,800 2,516 Climbing FlightAware ADS-B
Fri 08:19:03 PM 37.8528 -122.2160 358° North 296 341 8,500 2,323 Climbing FlightAware ADS-B
Fri 08:19:18 PM 37.8737 -122.2160 360° North 300 345 9,000 2,151 Climbing FlightAware ADS-B
Fri 08:19:56 PM 37.9264 -122.2160 360° North 301 346 10,400 1,652 Climbing FlightAware ADS-B
Fri 08:20:27 PM 37.9747 -122.2170 359° North 343 395 10,900 1,355 Climbing FlightAware ADS-B
Fri 08:20:58 PM 38.0258 -122.2170 360° North 359 413 11,800 2,118 Climbing FlightAware ADS-B
Fri 08:21:35 PM 38.0886 -122.2180 359° North 365 420 13,300 2,302 Climbing FlightAware ADS-B
Fri 08:22:24 PM 38.1730 -122.2180 360° North 378 435 15,100 2,118 Climbing FlightAware ADS-B
Fri 08:23:00 PM 38.2360 -122.2190 359° North 385 443 16,300 1,974 Climbing FlightAware ADS-B
Fri 08:23:40 PM 38.3080 -122.2200 359° North 392 451 17,600 1,756 Climbing FlightAware ADS-B
Fri 08:24:22 PM 38.3850 -122.2280 355° North 404 465 18,700 1,683 Climbing FlightAware ADS-B
Fri 08:25:02 PM 38.4600 -122.2360 355° North 412 474 19,900 1,807 Climbing FlightAware ADS-B
Fri 08:25:45 PM 38.5450 -122.2440 356° North 417 480 21,200 1,694 Climbing FlightAware ADS-B
Fri 08:26:27 PM 38.6250 -122.2530 355° North 424 488 22,300 1,517 Climbing FlightAware ADS-B
Fri 08:27:12 PM 38.7140 -122.2620 355° North 432 497 23,400 1,482 Climbing FlightAware ADS-B
Fri 08:27:52 PM 38.7960 -122.2700 356° North 438 504 24,400 1,459 Climbing FlightAware ADS-B
Fri 08:28:26 PM 38.8660 -122.2780 355° North 441 507 25,200 1,385 Climbing FlightAware ADS-B
Fri 08:29:10 PM 38.9540 -122.2870 355° North 445 512 26,200 1,317 Climbing FlightAware ADS-B
Fri 08:29:48 PM 39.0340 -122.2950 356° North 449 517 27,000 1,171 Climbing FlightAware ADS-B
Fri 08:30:32 PM 39.1230 -122.3050 355° North 454 522 27,800 1,071 Climbing FlightAware ADS-B
Fri 08:31:12 PM 39.2080 -122.3140 355° North 460 529 28,500 929 Climbing FlightAware ADS-B
Fri 08:31:56 PM 39.3040 -122.3240 355° North 467 537 29,100 818 Climbing FlightAware ADS-B
Fri 08:32:40 PM 39.4000 -122.3340 355° North 475 547 29,700 977 Climbing FlightAware ADS-B
Fri 08:33:22 PM 39.4900 -122.3440 355° North 476 548 30,500 1,098 Climbing FlightAware ADS-B
Fri 08:34:02 PM 39.5790 -122.3530 356° North 476 548 31,200 1,000 Climbing FlightAware ADS-B
Fri 08:34:46 PM 39.6740 -122.3630 355° North 477 549 31,900 1,000 Climbing FlightAware ADS-B
Fri 08:35:26 PM 39.7640 -122.3720 356° North 475 547 32,600 1,000 Climbing FlightAware ADS-B
Fri 08:36:10 PM 39.8590 -122.3820 355° North 475 547 33,300 929 Climbing FlightAware ADS-B
Fri 08:36:50 PM 39.9460 -122.3920 355° North 475 547 33,900 500 Climbing FlightAware ADS-B
Fri 08:37:34 PM 40.0440 -122.4020 356° North 475 547 34,000 75 Climbing FlightAware ADS-B
Fri 08:38:10 PM 40.1210 -122.4110 355° North 466 536 34,000  Level FlightAware ADS-B
Fri 08:38:56 PM 40.2200 -122.4220 355° North 464 534 34,000  Level FlightAware ADS-B
Fri 08:39:36 PM 40.3090 -122.4310 356° North 464 534 34,000  Level FlightAware ADS-B
Fri 08:40:21 PM 40.4050 -122.4410 355° North 470 541 34,000  Level FlightAware ADS-B
Fri 08:41:01 PM 40.4940 -122.4510 355° North 471 542 34,000  Level FlightAware ADS-B
Fri 08:41:46 PM 40.5890 -122.4620 355° North 471 542 34,000  Level FlightAware ADS-B
Fri 08:42:26 PM 40.6770 -122.4710 356° North 471 542 34,000  Level FlightAware ADS-B
Fri 08:43:06 PM 40.7650 -122.4810 355° North 464 534 34,000  Level FlightAware ADS-B
Fri 08:43:46 PM 40.8460 -122.4900 355° North 464 534 34,000  Level FlightAware ADS-B
Fri 08:44:26 PM 40.9320 -122.5000 355° North 464 534 34,000  Level FlightAware ADS-B
Fri 08:45:06 PM 41.0240 -122.5100 355° North 471 542 34,000  Level FlightAware ADS-B
Fri 08:46:05 PM 41.1310 -122.5220 355° North 471 542 34,000  Level FlightAware ADS-B
Fri 08:46:41 PM 41.2270 -122.5320 356° North 468 539 34,000  Level FlightAware ADS-B
Fri 08:47:26 PM 41.3250 -122.5430 355° North 468 539 34,000  Level FlightAware ADS-B
Fri 08:48:12 PM 41.4200 -122.5540 355° North 469 540 34,000  Level FlightAware ADS-B
Fri 08:48:48 PM 41.4860 -122.5620 355° North 469 540 34,000  Level FlightAware ADS-B
Fri 08:49:27 PM 41.5770 -122.5720 355° North 34,000  Level FlightAware ADS-B
Fri 08:50:04 PM 41.6680 -122.5820 355° North 474 545 34,000  Level FlightAware ADS-B
Fri 08:50:46 PM 41.7580 -122.5920 355° North 474 545 34,000  Level FlightAware ADS-B
Fri 08:51:22 PM 41.8370 -122.6010 355° North 472 543 34,000  Level FlightAware ADS-B
Fri 08:52:04 PM 41.9310 -122.6110 355° North 471 542 34,000  Level FlightAware ADS-B
Fri 08:52:47 PM 42.0200 -122.6220 355° North 473 544 34,000  Level FlightAware ADS-B
Fri 08:53:39 PM 42.1360 -122.6350 355° North 475 547 34,000  Level FlightAware ADS-B
Fri 08:54:21 PM 42.2280 -122.6460 355° North 473 544 34,000  Level FlightAware ADS-B
Fri 08:55:02 PM 42.3150 -122.6560 355° North 474 545 34,000  Level FlightAware ADS-B
Fri 08:55:44 PM 42.4090 -122.6670 355° North 475 547 34,000  Level FlightAware ADS-B
Fri 08:56:28 PM 42.5030 -122.6770 356° North 473 544 34,000  Level FlightAware ADS-B
Fri 08:57:04 PM 42.5840 -122.6870 355° North 471 542 34,000  Level FlightAware ADS-B
Fri 08:57:47 PM 42.6740 -122.6970 355° North 472 543 34,000  Level FlightAware ADS-B
Fri 08:58:23 PM 42.7480 -122.7060 355° North 472 543 34,000  Level FlightAware ADS-B
Fri 08:59:03 PM 42.8360 -122.7160 355° North 473 544 34,000  Level FlightAware ADS-B
Fri 08:59:51 PM 42.9480 -122.7300 355° North 474 545 34,000  Level FlightAware ADS-B
Fri 09:00:27 PM 43.0250 -122.7390 355° North 474 545 34,000  Level FlightAware ADS-B
Fri 09:01:10 PM 43.1200 -122.7500 355° North 473 544 34,000  Level FlightAware ADS-B
Fri 09:01:56 PM 43.2160 -122.7610 355° North 473 544 34,000  Level FlightAware ADS-B
Fri 09:02:32 PM 43.2980 -122.7710 355° North 472 543 34,000  Level FlightAware ADS-B
Fri 09:03:08 PM 43.3770 -122.7800 355° North 469 540 34,000  Level FlightAware ADS-B
Fri 09:03:57 PM 43.4810 -122.7930 355° North 466 536 34,000  Level FlightAware ADS-B
Fri 09:04:37 PM 43.5670 -122.8030 355° North 463 533 34,000  Level FlightAware ADS-B
Fri 09:05:13 PM 43.6430 -122.8120 355° North 461 531 34,000  Level FlightAware ADS-B
Fri 09:05:53 PM 43.7320 -122.8230 355° North 461 531 34,000  Level FlightAware ADS-B
Fri 09:06:37 PM 43.8270 -122.8350 355° North 459 528 34,000  Level FlightAware ADS-B
Fri 09:07:17 PM 43.9110 -122.8450 355° North 460 529 34,000  Level FlightAware ADS-B
Fri 09:08:01 PM 44.0040 -122.8560 355° North 461 531 34,000  Level FlightAware ADS-B
Fri 09:08:41 PM 44.0910 -122.8670 355° North 461 531 34,000  Level FlightAware ADS-B
Fri 09:09:21 PM 44.1740 -122.8770 355° North 462 532 34,000  Level FlightAware ADS-B
Fri 09:10:01 PM 44.2590 -122.8880 355° North 464 534 34,000  Level FlightAware ADS-B
Fri 09:10:41 PM 44.3460 -122.8980 355° North 464 534 34,000  Level FlightAware ADS-B
Fri 09:11:24 PM 44.4360 -122.9090 355° North 464 534 34,000  Level FlightAware ADS-B
Fri 09:11:46 PM 44.4863 -122.9160 354° North 466 536 34,000  Level FlightAware ADS-B
Fri 09:12:18 PM 44.5550 -122.9240 355° North 466 536 34,000  Level FlightAware ADS-B
Fri 09:12:49 PM 44.6206 -122.9320 355° North 466 536 34,000  Level FlightAware ADS-B
Fri 09:13:19 PM 44.6850 -122.9400 355° North 467 537 34,000  Level FlightAware ADS-B
Fri 09:13:49 PM 44.7497 -122.9490 354° North 467 537 34,000  Level FlightAware ADS-B
Fri 09:14:21 PM 44.8174 -122.9570 355° North 467 537 34,000  Level FlightAware ADS-B
Fri 09:14:53 PM 44.8863 -122.9660 355° North 466 536 34,000  Level FlightAware ADS-B
Fri 09:15:23 PM 44.9504 -122.9740 355° North 466 536 34,000  Level FlightAware ADS-B
Fri 09:15:54 PM 45.0168 -122.9820 355° North 464 534 34,000  Level FlightAware ADS-B
Fri 09:16:25 PM 45.0837 -122.9900 355° North 463 533 34,000  Level FlightAware ADS-B
Fri 09:16:55 PM 45.1484 -122.9990 354° North 464 534 34,000  Level FlightAware ADS-B
Fri 09:17:27 PM 45.2160 -123.0070 355° North 466 536 34,000  Level FlightAware ADS-B
Fri 09:17:58 PM 45.2835 -123.0160 355° North 466 536 34,000  Level FlightAware ADS-B
Fri 09:18:29 PM 45.3497 -123.0240 355° North 467 537 34,000  Level FlightAware ADS-B
Fri 09:19:00 PM 45.4160 -123.0330 355° North 469 540 34,000  Level FlightAware ADS-B
Fri 09:19:32 PM 45.4852 -123.0420 355° North 471 542 34,000  Level FlightAware ADS-B
Fri 09:20:02 PM 45.5509 -123.0500 355° North 474 545 34,000  Level FlightAware ADS-B
Fri 09:20:33 PM 45.6171 -123.0590 355° North 476 548 34,000  Level FlightAware ADS-B
Fri 09:21:03 PM 45.6833 -123.0670 355° North 477 549 34,000  Level FlightAware ADS-B
Fri 09:21:33 PM 45.7499 -123.0760 355° North 475 547 34,000  Level FlightAware ADS-B
Fri 09:22:03 PM 45.8150 -123.0840 355° North 474 545 34,000  Level FlightAware ADS-B
Fri 09:22:34 PM 45.8824 -123.0930 355° North 474 545 34,000  Level FlightAware ADS-B
Fri 09:23:05 PM 45.9490 -123.1020 355° North 472 543 34,000  Level FlightAware ADS-B
Fri 09:23:35 PM 46.0143 -123.1100 355° North 471 542 34,000  Level FlightAware ADS-B
Fri 09:24:05 PM 46.0800 -123.1190 355° North 472 543 34,000  Level FlightAware ADS-B
Fri 09:24:35 PM 46.1454 -123.1280 355° North 472 543 34,000  Level FlightAware ADS-B
Fri 09:25:05 PM 46.2115 -123.1360 355° North 473 544 34,000  Level FlightAware ADS-B
Fri 09:25:36 PM 46.2778 -123.1450 355° North 473 544 34,000  Level FlightAware ADS-B
Fri 09:26:06 PM 46.3436 -123.1540 355° North 471 542 34,000  Level FlightAware ADS-B
Fri 09:26:38 PM 46.4112 -123.1630 355° North 469 540 34,000  Level FlightAware ADS-B
Fri 09:27:08 PM 46.4766 -123.1710 355° North 469 540 34,000  Level FlightAware ADS-B
Fri 09:27:38 PM 46.5415 -123.1800 355° North 470 541 34,000  Level FlightAware ADS-B
Fri 09:28:08 PM 46.6070 -123.1890 355° North 470 541 34,000  Level FlightAware ADS-B
Fri 09:28:39 PM 46.6731 -123.1980 355° North 470 541 34,000  Level FlightAware ADS-B
Fri 09:29:09 PM 46.7381 -123.2070 355° North 471 542 34,000  Level FlightAware ADS-B
Fri 09:29:39 PM 46.8035 -123.2150 355° North 471 542 34,000  Level FlightAware ADS-B
Fri 09:30:09 PM 46.8690 -123.2240 355° North 471 542 34,000  Level FlightAware ADS-B
Fri 09:30:40 PM 46.9349 -123.2330 355° North 469 540 34,000  Level FlightAware ADS-B
Fri 09:31:10 PM 47.0004 -123.2420 355° North 469 540 34,000  Level FlightAware ADS-B
Fri 09:31:40 PM 47.0655 -123.2510 355° North 468 539 34,000  Level FlightAware ADS-B
Fri 09:32:10 PM 47.1299 -123.2600 355° North 467 537 34,000  Level FlightAware ADS-B
Fri 09:32:40 PM 47.1946 -123.2680 355° North 466 536 34,000  Level FlightAware ADS-B
Fri 09:33:11 PM 47.2603 -123.2770 355° North 465 535 34,000  Level FlightAware ADS-B
Fri 09:33:42 PM 47.3276 -123.2860 355° North 464 534 34,000  Level FlightAware ADS-B
Fri 09:34:13 PM 47.3917 -123.2950 355° North 463 533 34,000  Level FlightAware ADS-B
Fri 09:34:43 PM 47.4557 -123.3040 355° North 461 531 34,000  Level FlightAware ADS-B
Fri 09:35:17 PM 47.5274 -123.3140 355° North 458 527 34,000  Level FlightAware ADS-B
Fri 09:35:24 PM 47.5425 -123.3190 347° North 454 522 34,000  Level FlightAware ADS-B
Fri 09:35:30 PM 47.5553 -123.3240 345° North 451 519 34,000  Level FlightAware ADS-B
Fri 09:35:46 PM 47.5848 -123.3420 338° Northwest 445 512 34,000  Level FlightAware ADS-B
Fri 09:35:54 PM 47.5992 -123.3540 331° Northwest 442 509 34,000  Level FlightAware ADS-B
Fri 09:36:05 PM 47.6179 -123.3730 326° Northwest 439 505 34,000  Level FlightAware ADS-B
Fri 09:36:35 PM 47.6670 -123.4260 324° Northwest 438 504 34,000  Level FlightAware ADS-B
Fri 09:37:05 PM 47.7159 -123.4790 324° Northwest 438 504 34,000  Level FlightAware ADS-B
Fri 09:37:35 PM 47.7648 -123.5320 324° Northwest 437 503 34,000  Level FlightAware ADS-B
Fri 09:38:06 PM 47.8153 -123.5870 324° Northwest 438 504 34,000  Level FlightAware ADS-B
Fri 09:38:36 PM 47.8646 -123.6410 324° Northwest 438 504 34,000  Level FlightAware ADS-B
Fri 09:39:12 PM 47.9230 -123.7050 324° Northwest 438 504 34,000  Level FlightAware ADS-B
Fri 09:39:42 PM 47.9720 -123.7580 324° Northwest 439 505 34,000  Level FlightAware ADS-B
Fri 09:40:13 PM 48.0223 -123.8130 324° Northwest 439 505 34,000  Level FlightAware ADS-B
Fri 09:40:43 PM 48.0720 -123.8680 324° Northwest 441 507 34,000  Level FlightAware ADS-B
Fri 09:41:14 PM 48.1220 -123.9230 324° Northwest 442 509 34,000  Level FlightAware ADS-B
Fri 09:41:44 PM 48.1720 -123.9780 324° Northwest 443 510 34,000  Level FlightAware ADS-B
Fri 09:42:14 PM 48.2214 -124.0330 323° Northwest 444 511 34,000  Level FlightAware ADS-B
Fri 09:42:44 PM 48.2710 -124.0880 324° Northwest 444 511 34,000  Level FlightAware ADS-B
Fri 09:43:16 PM 48.3242 -124.1480 323° Northwest 443 510 34,000  Level FlightAware ADS-B
Fri 09:43:47 PM 48.3739 -124.2030 324° Northwest 440 506 34,000  Level FlightAware ADS-B
Fri 09:44:17 PM 48.4228 -124.2570 324° Northwest 439 505 34,000  Level FlightAware ADS-B
Fri 09:44:47 PM 48.4719 -124.3120 323° Northwest 438 504 34,000  Level FlightAware ADS-B
Fri 09:45:17 PM 48.5206 -124.3670 323° Northwest 438 504 34,000  Level FlightAware ADS-B
Fri 09:45:48 PM 48.5711 -124.4240 323° Northwest 438 504 34,000  Level FlightAware ADS-B
Fri 09:46:13 PM 48.6104 -124.4680 323° Northwest 438 504 34,000  Level FlightAware ADS-B
Fri 09:46:44 PM 48.6604 -124.5240 324° Northwest 436 502 34,000  Level FlightAware ADS-B
Fri 09:47:14 PM 48.7097 -124.5800 323° Northwest 436 502 34,000  Level FlightAware ADS-B
Fri 09:47:45 PM 48.7588 -124.6360 323° Northwest 435 501 34,000  Level FlightAware ADS-B
Fri 09:48:15 PM 48.8069 -124.6910 323° Northwest 434 499 34,000  Level FlightAware ADS-B
Fri 09:48:45 PM 48.8554 -124.7460 323° Northwest 431 496 34,000  Level FlightAware ADS-B
Fri 09:49:15 PM 48.9028 -124.8010 323° Northwest 428 493 34,000  Level FlightAware ADS-B
Fri 09:49:46 PM 48.9509 -124.8560 323° Northwest 424 488 34,000  Level FlightAware ADS-B
Fri 09:50:16 PM 48.9983 -124.9100 323° Northwest 424 488 34,000  Level FlightAware ADS-B
Fri 09:50:50 PM 49.0519 -124.9720 323° Northwest 422 486 34,000  Level FlightAware ADS-B
Fri 09:51:21 PM 49.0989 -125.0260 323° Northwest 422 486 34,000  Level FlightAware ADS-B
Fri 09:51:56 PM 49.1460 -125.0810 323° Northwest 422 486 34,000  Level FlightAware ADS-B
Fri 09:52:36 PM 49.2140 -125.1600 323° Northwest 421 484 34,000  Level FlightAware ADS-B
Fri 09:53:21 PM 49.2810 -125.2380 323° Northwest 420 483 34,000  Level FlightAware ADS-B
Fri 09:54:01 PM 49.3450 -125.3120 323° Northwest 418 481 34,000  Level FlightAware ADS-B
Fri 09:54:41 PM 49.4060 -125.3840 322° Northwest 418 481 34,000  Level FlightAware ADS-B
Fri 09:55:21 PM 49.4660 -125.4550 322° Northwest 421 484 34,000  Level FlightAware ADS-B
Fri 09:56:01 PM 49.5240 -125.5230 323° Northwest 421 484 34,000  Level FlightAware ADS-B
Fri 09:56:41 PM 49.5900 -125.6010 323° Northwest 424 488 34,000  Level FlightAware ADS-B
Fri 09:57:21 PM 49.6500 -125.6730 322° Northwest 427 491 34,000  Level FlightAware ADS-B
Fri 09:57:56 PM 49.7060 -125.7400 322° Northwest 426 490 34,000  Level FlightAware ADS-B
Fri 09:58:46 PM 49.7830 -125.8320 322° Northwest 426 490 34,000  Level FlightAware ADS-B
Fri 09:59:26 PM 49.8460 -125.9080 322° Northwest 424 488 34,000  Level FlightAware ADS-B
Fri 10:00:02 PM 49.9030 -125.9760 322° Northwest 423 487 34,000  Level FlightAware ADS-B
Fri 10:00:52 PM 49.9790 -126.0670 322° Northwest 421 484 34,000  Level FlightAware ADS-B
Fri 10:01:24 PM 50.0270 -126.1260 322° Northwest 419 482 34,000  Level FlightAware ADS-B
Fri 10:02:06 PM 50.0890 -126.2010 322° Northwest 420 483 34,000  Level FlightAware ADS-B
Fri 10:03:00 PM 50.1760 -126.3070 322° Northwest 418 481 34,000  Level FlightAware ADS-B
Fri 10:03:51 PM 50.2510 -126.4010 321° Northwest 420 483 34,000  Level FlightAware ADS-B
Fri 10:04:32 PM 50.3150 -126.4790 322° Northwest 420 483 34,000  Level FlightAware ADS-B
Fri 10:05:16 PM 50.3820 -126.5610 322° Northwest 422 486 34,000  Level FlightAware ADS-B
Fri 10:05:52 PM 50.4370 -126.6300 321° Northwest 422 486 34,000  Level FlightAware ADS-B
Fri 10:06:41 PM 50.5060 -126.7160 322° Northwest 424 488 34,000  Level FlightAware ADS-B
Fri 10:07:22 PM 50.5720 -126.7990 321° Northwest 424 488 34,000  Level FlightAware ADS-B
Fri 10:08:01 PM 50.6290 -126.8700 322° Northwest 424 488 34,000  Level FlightAware ADS-B
Fri 10:09:01 PM 50.7190 -126.9830 322° Northwest 422 486 34,000  Level FlightAware ADS-B
Fri 10:09:41 PM 50.7820 -127.0620 322° Northwest 421 484 34,000  Level FlightAware ADS-B
Fri 10:10:22 PM 50.8460 -127.1440 321° Northwest 421 484 34,000  Level FlightAware ADS-B
Fri 10:11:22 PM 50.9220 -127.2380 322° Northwest 421 484 34,000  Level FlightAware ADS-B
Fri 10:11:58 PM 50.9690 -127.2960 322° Northwest 421 484 34,000  Level FlightAware ADS-B
Fri 10:12:46 PM 51.0310 -127.3740 322° Northwest 421 484 34,000  Level FlightAware ADS-B
Fri 10:13:22 PM 51.0780 -127.4320 322° Northwest 421 484 34,000  Level FlightAware ADS-B
Fri 10:14:10 PM 51.1410 -127.5100 322° Northwest 421 484 34,000  Level FlightAware ADS-B
Fri 10:14:46 PM 51.1880 -127.5690 322° Northwest 421 484 34,000  Level FlightAware ADS-B
Fri 10:15:35 PM 51.2520 -127.6490 322° Northwest 421 484 34,000  Level FlightAware ADS-B
Fri 10:16:11 PM 51.2990 -127.7070 322° Northwest 421 484 34,000  Level FlightAware ADS-B
Fri 10:16:59 PM 51.3620 -127.7860 322° Northwest 421 484 34,000  Level FlightAware ADS-B
Fri 10:17:35 PM 51.4080 -127.8440 322° Northwest 421 484 34,000  Level FlightAware ADS-B
Fri 10:18:23 PM 51.4710 -127.9230 322° Northwest 421 484 34,000  Level FlightAware ADS-B
Fri 10:18:59 PM 51.5180 -127.9820 322° Northwest 421 484 34,000  Level FlightAware ADS-B
Fri 10:19:48 PM 51.5820 -128.0620 322° Northwest 421 484 34,000  Level FlightAware ADS-B
Fri 10:20:24 PM 51.6290 -128.1210 322° Northwest 421 484 34,000  Level FlightAware ADS-B
Fri 10:21:02 PM 51.7833 -128.4167 322° Northwest 420 483 34,000  Level Vancouver Center
Fri 10:22:02 PM 51.8667 -128.5333 319° Northwest 420 483 34,000  Level Vancouver Center
Fri 10:23:02 PM 51.9667 -128.6500 324° Northwest 410 472 34,000  Level Vancouver Center
Fri 10:24:02 PM 52.0500 -128.7667 319° Northwest 410 472 34,000  Level Vancouver Center
Fri 10:25:02 PM 52.1333 -128.8833 319° Northwest 410 472 34,000  Level Vancouver Center
Fri 10:26:02 PM 52.2333 -129.0000 324° Northwest 410 472 34,000  Level Vancouver Center
Fri 10:27:02 PM 52.3167 -129.1333 316° Northwest 410 472 34,000  Level Vancouver Center
Fri 10:28:02 PM 52.4000 -129.2500 320° Northwest 400 460 34,000  Level Vancouver Center
Fri 10:29:02 PM 52.4833 -129.3667 320° Northwest 400 460 34,000  Level Vancouver Center
Fri 10:30:02 PM 52.5667 -129.4833 320° Northwest 400 460 34,000  Level Vancouver Center
Fri 10:31:02 PM 52.6500 -129.6000 320° Northwest 400 460 34,000  Level Vancouver Center
Fri 10:32:02 PM 52.7333 -129.7333 316° Northwest 400 460 34,000  Level Vancouver Center
Fri 10:33:02 PM 52.8167 -129.8500 320° Northwest 410 472 34,000  Level Vancouver Center
Fri 10:34:02 PM 52.9000 -129.9667 320° Northwest 400 460 34,000  Level Vancouver Center
Fri 10:35:02 PM 52.9833 -130.1000 316° Northwest 400 460 34,000  Level Vancouver Center
Fri 10:36:02 PM 53.0833 -130.2167 325° Northwest 400 460 34,000  Level Vancouver Center
Fri 10:37:02 PM 53.1500 -130.3500 310° West 400 460 34,000  Level Vancouver Center
Fri 10:38:02 PM 53.2500 -130.4667 325° Northwest 390 449 34,000  Level Vancouver Center
Fri 10:39:02 PM 53.3167 -130.5667 318° Northwest 390 449 34,000  Level Vancouver Center
Fri 10:40:02 PM 53.4000 -130.6833 320° Northwest 390 449 34,000  Level Vancouver Center
Fri 10:41:02 PM 53.4833 -130.8167 316° Northwest 390 449 34,000  Level Vancouver Center
Fri 10:42:02 PM 53.5500 -130.9333 314° West 390 449 34,000  Level Vancouver Center
Fri 10:43:02 PM 53.6500 -131.0667 322° Northwest 400 460 34,000  Level Vancouver Center
Fri 10:44:02 PM 53.7167 -131.1667 318° Northwest 390 449 34,000  Level Vancouver Center
Fri 10:45:02 PM 53.8000 -131.3167 313° West 390 449 34,000  Level Vancouver Center
Fri 10:46:02 PM 53.8833 -131.4167 325° Northwest 390 449 34,000  Level Vancouver Center
Fri 10:47:02 PM 53.9667 -131.5500 317° Northwest 390 449 34,000  Level Vancouver Center
Fri 10:48:02 PM 54.0500 -131.6833 317° Northwest 390 449 34,000  Level Vancouver Center
Fri 10:49:02 PM 54.1167 -131.8000 314° West 390 449 34,000  Level Vancouver Center
Fri 10:50:02 PM 54.2000 -131.9333 317° Northwest 390 449 34,000  Level Vancouver Center
Fri 10:51:02 PM 54.2833 -132.0667 317° Northwest 390 449 34,000  Level Vancouver Center
Fri 10:52:02 PM 54.3667 -132.1667 325° Northwest 390 449 34,000  Level Vancouver Center
Fri 10:53:02 PM 54.4333 -132.3000 311° West 390 449 34,000  Level Vancouver Center
Fri 10:54:02 PM 54.5167 -132.4333 317° Northwest 390 449 34,000  Level Vancouver Center
Fri 10:55:02 PM 54.5833 -132.5667 311° West 390 449 34,000  Level Vancouver Center
Fri 10:56:02 PM 54.6833 -132.7000 322° Northwest 390 449 34,000  Level Vancouver Center
Fri 10:57:02 PM 54.7500 -132.8333 311° West 390 449 34,000  Level Vancouver Center
Fri 10:58:05 PM 54.8333 -132.9000 335° Northwest 390 449 34,000  Level Anchorage Center
Fri 10:59:05 PM 54.9167 -133.0333 317° Northwest 390 449 34,000  Level Anchorage Center
Fri 11:00:06 PM 55.0000 -133.1667 317° Northwest 400 460 34,000  Level Anchorage Center
Fri 11:01:06 PM 55.0833 -133.3000 318° Northwest 400 460 34,000  Level Anchorage Center
Fri 11:02:06 PM 55.1500 -133.4333 311° West 400 460 34,000  Level Anchorage Center
Fri 11:03:07 PM 55.2333 -133.5500 321° Northwest 390 449 34,000  Level Anchorage Center
Fri 11:04:07 PM 55.3000 -133.6833 311° West 390 449 34,000  Level Anchorage Center
Fri 11:05:07 PM 55.3833 -133.8167 318° Northwest 400 460 34,000  Level Anchorage Center
Fri 11:06:08 PM 55.4667 -133.9500 318° Northwest 390 449 34,000  Level Anchorage Center
Fri 11:07:08 PM 55.5333 -134.0833 311° West 390 449 34,000  Level Anchorage Center
Fri 11:08:08 PM 55.6167 -134.2167 318° Northwest 400 460 34,000  Level Anchorage Center
Fri 11:09:09 PM 55.7000 -134.3500 318° Northwest 400 460 34,000  Level Anchorage Center
Fri 11:10:09 PM 55.7667 -134.4833 312° West 390 449 34,000  Level Anchorage Center
Fri 11:11:09 PM 55.8500 -134.6167 318° Northwest 390 449 34,000  Level Anchorage Center
Fri 11:12:10 PM 55.9333 -134.7500 318° Northwest 390 449 34,000  Level Anchorage Center
Fri 11:13:10 PM 56.0000 -134.9000 309° West 390 449 34,000  Level Anchorage Center
Fri 11:14:10 PM 56.0833 -135.0333 318° Northwest 390 449 34,000  Level Anchorage Center
Fri 11:15:02 PM 56.1500 -135.2333 301° West 390 449 34,000  Level Vancouver Center
Fri 11:16:02 PM 56.2333 -135.3833 315° West 390 449 34,000  Level Vancouver Center
Fri 11:17:02 PM 56.3167 -135.5167 318° Northwest 390 449 34,000  Level Vancouver Center
Fri 11:18:02 PM 56.3667 -135.6333 308° West 390 449 34,000  Level Vancouver Center
Fri 11:19:02 PM 56.4500 -135.7833 315° West 390 449 34,000  Level Vancouver Center
Fri 11:20:12 PM 56.5500 -135.8833 331° Northwest 390 449 34,000  Level Anchorage Center
Fri 11:21:12 PM 56.6167 -136.0333 309° West 400 460 34,000  Level Anchorage Center
Fri 11:22:13 PM 56.7000 -136.1833 315° West 390 449 34,000  Level Anchorage Center
Fri 11:23:13 PM 56.7833 -136.3167 319° Northwest 400 460 34,000  Level Anchorage Center
Fri 11:24:02 PM 56.8333 -136.5167 295° West 400 460 34,000  Level Vancouver Center
Fri 11:25:02 PM 56.9167 -136.6667 316° Northwest 400 460 34,000  Level Vancouver Center
Fri 11:26:02 PM 57.0000 -136.8167 316° Northwest 400 460 34,000  Level Vancouver Center
Fri 11:27:02 PM 57.0667 -136.9667 309° West 400 460 34,000  Level Vancouver Center
Fri 11:28:02 PM 57.1500 -137.1167 316° Northwest 400 460 34,000  Level Vancouver Center
Fri 11:29:02 PM 57.2167 -137.2667 309° West 400 460 34,000  Level Vancouver Center
Fri 11:30:02 PM 57.3000 -137.4167 316° Northwest 400 460 34,000  Level Vancouver Center
Fri 11:31:02 PM 57.3667 -137.5667 310° West 400 460 34,000  Level Vancouver Center
Fri 11:32:02 PM 57.4333 -137.7167 310° West 400 460 34,000  Level Vancouver Center
Fri 11:33:17 PM 57.5333 -137.8167 332° Northwest 390 449 34,000  Level Anchorage Center
Fri 11:34:17 PM 57.6167 -137.9667 316° Northwest 400 460 34,000  Level Anchorage Center
Fri 11:35:17 PM 57.6833 -138.1167 310° West 410 472 34,000  Level Anchorage Center
Fri 11:36:18 PM 57.7667 -138.2833 313° West 400 460 34,000  Level Anchorage Center
Fri 11:37:18 PM 57.8333 -138.4333 310° West 400 460 34,000  Level Anchorage Center
Fri 11:38:18 PM 57.9167 -138.5833 316° Northwest 400 460 34,000  Level Anchorage Center
Fri 11:39:19 PM 57.9833 -138.7500 307° West 400 460 34,000  Level Anchorage Center
Fri 11:40:19 PM 58.0667 -138.9167 313° West 400 460 34,000  Level Anchorage Center
Fri 11:41:20 PM 58.1333 -139.0667 310° West 400 460 34,000  Level Anchorage Center
Fri 11:42:20 PM 58.2167 -139.2333 314° West 410 472 34,000  Level Anchorage Center
Fri 11:43:20 PM 58.2833 -139.3833 310° West 400 460 34,000  Level Anchorage Center
Fri 11:44:21 PM 58.3667 -139.5500 314° West 410 472 34,000  Level Anchorage Center
Fri 11:45:21 PM 58.4333 -139.7167 307° West 410 472 34,000  Level Anchorage Center
Fri 11:46:21 PM 58.5167 -139.8833 314° West 410 472 34,000  Level Anchorage Center
Fri 11:47:22 PM 58.5833 -140.0500 308° West 410 472 34,000  Level Anchorage Center
Fri 11:48:22 PM 58.6667 -140.2167 314° West 410 472 34,000  Level Anchorage Center
Fri 11:49:22 PM 58.7333 -140.3833 308° West 410 472 34,000  Level Anchorage Center
Fri 11:50:22 PM 58.8167 -140.5667 311° West 410 472 34,000  Level Anchorage Center
Fri 11:51:23 PM 58.8833 -140.7500 305° West 420 483 34,000  Level Anchorage Center
Fri 11:52:23 PM 58.9333 -140.9500 296° West 420 483 34,000  Level Anchorage Center
Fri 11:53:23 PM 59.0000 -141.1333 305° West 420 483 34,000  Level Anchorage Center
Fri 11:54:24 PM 59.0667 -141.3167 305° West 420 483 34,000  Level Anchorage Center
Fri 11:55:24 PM 59.1333 -141.5167 303° West 420 483 34,000  Level Anchorage Center
Fri 11:56:25 PM 59.2000 -141.7000 305° West 420 483 34,000  Level Anchorage Center
Fri 11:57:25 PM 59.2667 -141.9000 303° West 420 483 34,000  Level Anchorage Center
Fri 11:58:25 PM 59.3333 -142.0833 306° West 420 483 34,000  Level Anchorage Center
Fri 11:59:26 PM 59.4000 -142.2833 303° West 420 483 34,000  Level Anchorage Center
Sat 12:00:26 AM 59.4500 -142.4833 296° West 430 495 34,000  Level Anchorage Center
Sat 12:01:26 AM 59.5167 -142.6833 303° West 430 495 34,000  Level Anchorage Center
Sat 12:02:27 AM 59.5833 -142.8833 303° West 420 483 34,000  Level Anchorage Center
Sat 12:03:27 AM 59.6500 -143.1167 300° West 430 495 34,000  Level Anchorage Center
Sat 12:04:27 AM 59.7000 -143.3000 298° West 430 495 34,000  Level Anchorage Center
Sat 12:05:28 AM 59.7500 -143.5333 293° West 430 495 34,000  Level Anchorage Center
Sat 12:06:28 AM 59.8000 -143.7500 295° West 430 495 34,000  Level Anchorage Center
Sat 12:07:28 AM 59.8667 -143.9667 302° West 430 495 34,000  Level Anchorage Center
Sat 12:08:29 AM 59.9167 -144.1833 295° West 440 506 34,000  Level Anchorage Center
Sat 12:09:29 AM 59.9667 -144.4167 293° West 440 506 34,000  Level Anchorage Center
Sat 12:10:29 AM 60.0167 -144.6333 295° West 440 506 34,000  Level Anchorage Center
Sat 12:11:30 AM 60.0833 -144.8500 302° West 440 506 34,000  Level Anchorage Center
Sat 12:12:30 AM 60.1333 -145.0667 295° West 440 506 34,000  Level Anchorage Center
Sat 12:13:31 AM 60.1833 -145.3000 293° West 440 506 34,000  Level Anchorage Center
Sat 12:14:31 AM 60.2333 -145.5167 295° West 450 518 34,000  Level Anchorage Center
Sat 12:15:31 AM 60.2833 -145.7500 293° West 450 518 34,000  Level Anchorage Center
Sat 12:20:37 AM 60.5620 -147.0030 293° West 459 528 34,000  Level FlightAware ADS-B
Sat 12:21:17 AM 60.5940 -147.1650 292° West 460 529 34,000  Level FlightAware ADS-B
Sat 12:22:01 AM 60.6280 -147.3380 292° West 462 532 34,000 -71 Level FlightAware ADS-B
Sat 12:22:41 AM 60.6600 -147.5000 292° West 460 529 33,900 -2,000 Descending FlightAware ADS-B
Sat 12:23:25 AM 60.6950 -147.6810 292° West 480 552 31,200 -3,675 Descending FlightAware ADS-B
Sat 12:24:01 AM 60.7250 -147.8370 292° West 490 564 29,000 -3,237 Descending FlightAware ADS-B
Sat 12:24:41 AM 60.7580 -148.0090 292° West 486 559 27,100 -2,741 Descending FlightAware ADS-B
Sat 12:25:22 AM 60.7890 -148.1760 291° West 478 550 25,300 -2,707 Descending FlightAware ADS-B
Sat 12:26:03 AM 60.8220 -148.3510 291° West 467 537 23,400 -2,658 Descending FlightAware ADS-B
Sat 12:26:41 AM 60.8510 -148.5060 291° West 456 525 21,800 -2,526 Descending FlightAware ADS-B
Sat 12:27:19 AM 60.8790 -148.6590 291° West 444 511 20,200 -2,475 Descending FlightAware ADS-B
Sat 12:28:01 AM 60.9080 -148.8200 290° West 430 495 18,500 -2,512 Descending FlightAware ADS-B
Sat 12:28:45 AM 60.9390 -148.9880 291° West 417 480 16,600 -2,455 Descending FlightAware ADS-B
Sat 12:29:29 AM 60.9670 -149.1440 290° West 406 467 14,900 -2,000 Descending FlightAware ADS-B
Sat 12:30:09 AM 60.9930 -149.2900 290° West 383 441 13,800 -1,214 Descending FlightAware ADS-B
Sat 12:30:53 AM 61.0180 -149.4310 290° West 349 402 13,200 -711 Descending FlightAware ADS-B
Sat 12:31:25 AM 61.0350 -149.5280 290° West 325 374 12,900 -947 Descending FlightAware ADS-B
Sat 12:32:09 AM 61.0570 -149.6500 290° West 305 351 12,000 -1,047 Descending FlightAware ADS-B
Sat 12:32:51 AM 61.0770 -149.7600 291° West 277 319 11,400 -968 Descending FlightAware ADS-B
Sat 12:33:11 AM 61.0830 -149.8100 284° West 267 307 11,000 -1,594 Descending FlightAware ADS-B
Sat 12:33:55 AM 61.0840 -149.9150 271° West 249 287 9,700 -1,821 Descending FlightAware ADS-B
Sat 12:34:07 AM 61.0840 -149.9440 270° West 248 285 9,300 -1,500 Descending FlightAware ADS-B
Sat 12:34:35 AM 61.0850 -150.0080 272° West 238 274 8,700 -1,286 Descending FlightAware ADS-B
Sat 12:35:03 AM 61.0850 -150.0690 270° West 223 257 8,100 -1,607 Descending FlightAware ADS-B
Sat 12:35:31 AM 61.0860 -150.1300 272° West 226 260 7,200 -1,909 Descending FlightAware ADS-B
Sat 12:35:47 AM 61.0870 -150.1650 273° West 223 257 6,700 -1,714 Descending FlightAware ADS-B
Sat 12:36:13 AM 61.0870 -150.2170 270° West 211 243 6,000 -1,929 Descending FlightAware ADS-B
Sat 12:36:43 AM 61.0900 -150.2760 276° West 208 239 4,900 -2,286 Descending FlightAware ADS-B
Sat 12:36:55 AM 61.0970 -150.2950 307° West 205 236 4,400 -2,143 Descending FlightAware ADS-B
Sat 12:37:11 AM 61.1100 -150.3050 340° North 204 235 3,900 -2,053 Descending FlightAware ADS-B
Sat 12:37:33 AM 61.1320 -150.3080 356° North 204 235 3,100 -2,250 Descending FlightAware ADS-B
Sat 12:37:59 AM 61.1540 -150.2840 28° Northeast 207 238 2,100 -2,211 Descending FlightAware ADS-B
Sat 12:38:11 AM 61.1600 -150.2660 55° Northeast 205 236 1,700 -1,071 Descending FlightAware ADS-B
Sat 12:38:27 AM 61.1670 -150.2390 62° Northeast 194 223 1,600 -231 Descending FlightAware ADS-B
Sat 12:38:37 AM 61.1680 -150.2210 83° East 192 221 1,600 -450 Level FlightAware ADS-B
Sat 12:39:07 AM 61.1680 -150.1680 90° East 176 203 1,300 -750 Descending FlightAware ADS-B
Sat 12:39:17 AM 61.1680 -150.1520 90° East 165 190 1,100 -808 Descending FlightAware ADS-B
Sat 12:39:59 AM 61.1680 -150.0880 90° East 161 185 600 -727 Descending FlightAware ADS-B
Sat 12:40:23 AM 61.1680 -150.0520 90° East 161 185 300 -750 Descending FlightAware ADS-B
Sat 12:40:31 AM 61.1680 -150.0400 90° East 159 183 200 -750 Descending FlightAware ADS-B
Sat 12:41:05 AM 61.1680 -150.0030 90° East 56 64 -353 Descending FlightAware ADS-B
Sat 12:41:37 AM 61.1690 -149.9940 77° East 23 26  Level FlightAware ADS-B
Sat 12:41:49 AM 61.1700 -149.9930 26° Northeast 21 24  Level FlightAware ADS-B
Sat 12:42:17 AM 61.1710 -149.9900 55° Northeast 31 36  Level FlightAware ADS-B
Sat 12:44:00 AM 61.1667 -149.9833 270° West  Level FlightAware Approximate
Sat 12:45:00 AM 61.1741 -149.9982 270° West  Level Estimated
Sat 12:46:00 AM 61.1741 -149.9982 270° West  Level Estimated
Sat 12:47:00 AM 61.1741 -149.9982 270° West  Level Estimated
Sat 12:48:00 AM 61.1741 -149.9982 270° West  Level Estimated
Sat 12:49:00 AM 61.1741 -149.9982 270° West  Level Estimated
Sat 12:50:00 AM 61.1741 -149.9982 270° West  Level Estimated

Login

Don't have an account? Register now (free) for customized features, flight alerts, and more!